sensor_id;sensor_type;location;lat;lon;timestamp;pressure;altitude;pressure_sealevel;temperature;humidity
77590;BME280;66746;51.328;12.332;2023-07-13T00:00:05;100035.75;;;20.97;46.98
77590;BME280;66746;51.328;12.332;2023-07-13T00:02:32;100027.81;;;20.83;46.30
77590;BME280;66746;51.328;12.332;2023-07-13T00:05:01;100022.72;;;20.67;47.70
77590;BME280;66746;51.328;12.332;2023-07-13T00:07:30;100057.38;;;20.81;47.99
77590;BME280;66746;51.328;12.332;2023-07-13T00:09:58;100063.41;;;20.75;48.13
77590;BME280;66746;51.328;12.332;2023-07-13T00:12:34;100082.19;;;20.81;48.18
77590;BME280;66746;51.328;12.332;2023-07-13T00:15:11;100065.41;;;20.73;48.26
77590;BME280;66746;51.328;12.332;2023-07-13T00:17:41;100079.16;;;20.84;48.43
77590;BME280;66746;51.328;12.332;2023-07-13T00:20:11;100090.81;;;20.87;47.89
77590;BME280;66746;51.328;12.332;2023-07-13T00:22:46;100093.84;;;20.84;48.83
77590;BME280;66746;51.328;12.332;2023-07-13T00:25:15;100092.81;;;20.85;48.93
77590;BME280;66746;51.328;12.332;2023-07-13T00:27:43;100076.06;;;20.77;48.47
77590;BME280;66746;51.328;12.332;2023-07-13T00:30:11;100074.44;;;20.75;48.88
77590;BME280;66746;51.328;12.332;2023-07-13T00:32:43;100080.84;;;20.75;47.70
77590;BME280;66746;51.328;12.332;2023-07-13T00:35:13;100101.22;;;20.84;47.05
77590;BME280;66746;51.328;12.332;2023-07-13T00:37:46;100103.84;;;20.85;48.05
77590;BME280;66746;51.328;12.332;2023-07-13T00:40:22;100100.34;;;20.83;47.88
77590;BME280;66746;51.328;12.332;2023-07-13T00:42:53;100106.25;;;20.79;48.78
77590;BME280;66746;51.328;12.332;2023-07-13T00:48:34;100112.00;;;20.87;48.25
77590;BME280;66746;51.328;12.332;2023-07-13T00:51:02;100103.00;;;20.85;48.76
77590;BME280;66746;51.328;12.332;2023-07-13T00:53:32;100108.13;;;20.78;47.89
77590;BME280;66746;51.328;12.332;2023-07-13T00:56:06;100138.41;;;20.89;47.54
77590;BME280;66746;51.328;12.332;2023-07-13T00:58:36;100125.28;;;20.82;47.56
77590;BME280;66746;51.328;12.332;2023-07-13T01:01:06;100126.03;;;20.95;47.14
77590;BME280;66746;51.328;12.332;2023-07-13T01:03:35;100119.91;;;21.02;47.35
77590;BME280;66746;51.328;12.332;2023-07-13T01:06:07;100109.63;;;21.04;46.95
77590;BME280;66746;51.328;12.332;2023-07-13T01:08:37;100100.69;;;21.12;47.01
77590;BME280;66746;51.328;12.332;2023-07-13T01:11:07;100119.19;;;21.21;45.94
77590;BME280;66746;51.328;12.332;2023-07-13T01:13:38;100105.06;;;21.15;46.40
77590;BME280;66746;51.328;12.332;2023-07-13T01:16:13;100106.72;;;21.06;46.10
77590;BME280;66746;51.328;12.332;2023-07-13T01:18:41;100095.94;;;21.03;46.04
77590;BME280;66746;51.328;12.332;2023-07-13T01:21:18;100111.19;;;21.18;46.13
77590;BME280;66746;51.328;12.332;2023-07-13T01:23:49;100105.69;;;21.18;46.22
77590;BME280;66746;51.328;12.332;2023-07-13T01:26:17;100108.53;;;21.17;46.53
77590;BME280;66746;51.328;12.332;2023-07-13T01:28:46;100100.19;;;21.07;46.75
77590;BME280;66746;51.328;12.332;2023-07-13T01:31:13;100103.91;;;21.17;46.70
77590;BME280;66746;51.328;12.332;2023-07-13T01:33:42;100121.47;;;21.16;47.07
77590;BME280;66746;51.328;12.332;2023-07-13T01:36:14;100119.75;;;21.04;47.01
77590;BME280;66746;51.328;12.332;2023-07-13T01:38:45;100113.50;;;21.02;47.41
77590;BME280;66746;51.328;12.332;2023-07-13T01:41:11;100113.97;;;21.07;47.70
77590;BME280;66746;51.328;12.332;2023-07-13T01:43:38;100095.69;;;20.95;47.76
77590;BME280;66746;51.328;12.332;2023-07-13T01:46:06;100116.78;;;20.85;48.19
77590;BME280;66746;51.328;12.332;2023-07-13T01:48:49;100118.53;;;20.75;48.43
77590;BME280;66746;51.328;12.332;2023-07-13T01:51:16;100110.06;;;20.56;48.52
77590;BME280;66746;51.328;12.332;2023-07-13T01:53:45;100122.44;;;20.61;48.91
77590;BME280;66746;51.328;12.332;2023-07-13T01:56:12;100103.03;;;20.52;49.17
77590;BME280;66746;51.328;12.332;2023-07-13T01:58:40;100091.78;;;20.44;49.21
77590;BME280;66746;51.328;12.332;2023-07-13T02:01:06;100121.56;;;20.61;49.73
77590;BME280;66746;51.328;12.332;2023-07-13T02:03:33;100122.56;;;20.49;49.59
77590;BME280;66746;51.328;12.332;2023-07-13T02:06:00;100118.06;;;20.37;49.75
77590;BME280;66746;51.328;12.332;2023-07-13T02:08:26;100103.53;;;20.35;49.41
77590;BME280;66746;51.328;12.332;2023-07-13T02:10:54;100117.56;;;20.43;49.71
77590;BME280;66746;51.328;12.332;2023-07-13T02:13:21;100122.81;;;20.35;49.96
77590;BME280;66746;51.328;12.332;2023-07-13T02:15:50;100119.31;;;20.21;50.25
77590;BME280;66746;51.328;12.332;2023-07-13T02:18:16;100133.22;;;20.20;50.85
77590;BME280;66746;51.328;12.332;2023-07-13T02:20:44;100133.78;;;20.12;50.88
77590;BME280;66746;51.328;12.332;2023-07-13T02:23:11;100121.22;;;19.97;51.47
77590;BME280;66746;51.328;12.332;2023-07-13T02:25:38;100128.50;;;19.98;51.50
77590;BME280;66746;51.328;12.332;2023-07-13T02:28:06;100128.75;;;19.95;51.60
77590;BME280;66746;51.328;12.332;2023-07-13T02:30:33;100140.03;;;20.03;51.82
77590;BME280;66746;51.328;12.332;2023-07-13T02:33:00;100149.56;;;20.10;51.88
77590;BME280;66746;51.328;12.332;2023-07-13T02:35:26;100130.03;;;20.02;52.49
77590;BME280;66746;51.328;12.332;2023-07-13T02:37:53;100114.72;;;19.87;52.13
77590;BME280;66746;51.328;12.332;2023-07-13T02:40:20;100102.56;;;19.79;52.63
77590;BME280;66746;51.328;12.332;2023-07-13T02:42:46;100122.47;;;19.82;52.61
77590;BME280;66746;51.328;12.332;2023-07-13T02:45:14;100125.84;;;19.75;53.08
77590;BME280;66746;51.328;12.332;2023-07-13T02:47:41;100130.72;;;19.71;53.19
77590;BME280;66746;51.328;12.332;2023-07-13T02:50:08;100134.91;;;19.64;53.57
77590;BME280;66746;51.328;12.332;2023-07-13T02:52:35;100129.25;;;19.55;53.76
77590;BME280;66746;51.328;12.332;2023-07-13T02:55:02;100128.72;;;19.73;53.70
77590;BME280;66746;51.328;12.332;2023-07-13T02:57:29;100120.19;;;19.76;53.60
77590;BME280;66746;51.328;12.332;2023-07-13T02:59:55;100131.75;;;19.81;53.31
77590;BME280;66746;51.328;12.332;2023-07-13T03:02:23;100132.84;;;19.79;53.88
77590;BME280;66746;51.328;12.332;2023-07-13T03:04:50;100125.44;;;19.68;54.00
77590;BME280;66746;51.328;12.332;2023-07-13T03:07:17;100120.03;;;19.56;53.88
77590;BME280;66746;51.328;12.332;2023-07-13T03:09:46;100135.41;;;19.58;55.28
77590;BME280;66746;51.328;12.332;2023-07-13T03:12:13;100120.09;;;19.43;55.51
77590;BME280;66746;51.328;12.332;2023-07-13T03:14:39;100140.38;;;19.53;55.53
77590;BME280;66746;51.328;12.332;2023-07-13T03:17:07;100128.13;;;19.46;54.82
77590;BME280;66746;51.328;12.332;2023-07-13T03:19:39;100140.75;;;19.49;54.58
77590;BME280;66746;51.328;12.332;2023-07-13T03:22:06;100139.28;;;19.32;54.77
77590;BME280;66746;51.328;12.332;2023-07-13T03:24:34;100140.22;;;19.20;55.19
77590;BME280;66746;51.328;12.332;2023-07-13T03:27:06;100144.56;;;19.35;55.04
77590;BME280;66746;51.328;12.332;2023-07-13T03:29:35;100158.13;;;19.49;54.83
77590;BME280;66746;51.328;12.332;2023-07-13T03:32:02;100125.66;;;19.30;54.89
77590;BME280;66746;51.328;12.332;2023-07-13T03:34:29;100140.56;;;19.39;55.12
77590;BME280;66746;51.328;12.332;2023-07-13T03:36:57;100139.50;;;19.29;55.31
77590;BME280;66746;51.328;12.332;2023-07-13T03:39:23;100154.09;;;19.42;55.70
77590;BME280;66746;51.328;12.332;2023-07-13T03:41:53;100167.56;;;19.34;55.77
77590;BME280;66746;51.328;12.332;2023-07-13T03:44:20;100164.66;;;19.12;56.08
77590;BME280;66746;51.328;12.332;2023-07-13T03:46:51;100169.09;;;19.02;56.68
77590;BME280;66746;51.328;12.332;2023-07-13T03:49:18;100178.09;;;19.04;57.09
77590;BME280;66746;51.328;12.332;2023-07-13T03:51:45;100153.97;;;18.84;57.81
77590;BME280;66746;51.328;12.332;2023-07-13T03:54:12;100165.00;;;18.71;58.26
77590;BME280;66746;51.328;12.332;2023-07-13T03:56:39;100156.91;;;18.57;59.11
77590;BME280;66746;51.328;12.332;2023-07-13T03:59:07;100181.28;;;18.62;59.31
77590;BME280;66746;51.328;12.332;2023-07-13T04:01:34;100188.66;;;18.74;58.42
77590;BME280;66746;51.328;12.332;2023-07-13T04:04:01;100188.97;;;18.69;58.66
77590;BME280;66746;51.328;12.332;2023-07-13T04:06:31;100188.09;;;18.69;58.92
77590;BME280;66746;51.328;12.332;2023-07-13T04:09:00;100183.91;;;18.76;58.90
77590;BME280;66746;51.328;12.332;2023-07-13T04:11:30;100188.09;;;18.69;59.44
77590;BME280;66746;51.328;12.332;2023-07-13T04:13:59;100187.44;;;18.52;60.29
77590;BME280;66746;51.328;12.332;2023-07-13T04:16:25;100200.41;;;18.50;59.94
77590;BME280;66746;51.328;12.332;2023-07-13T04:18:52;100190.06;;;18.41;60.52
77590;BME280;66746;51.328;12.332;2023-07-13T04:21:19;100194.03;;;18.37;60.99
77590;BME280;66746;51.328;12.332;2023-07-13T04:23:45;100197.53;;;18.39;60.08
77590;BME280;66746;51.328;12.332;2023-07-13T04:26:12;100198.44;;;18.40;60.46
77590;BME280;66746;51.328;12.332;2023-07-13T04:28:40;100204.78;;;18.40;60.76
77590;BME280;66746;51.328;12.332;2023-07-13T04:31:07;100199.09;;;18.43;60.78
77590;BME280;66746;51.328;12.332;2023-07-13T04:33:34;100189.66;;;18.47;60.28
77590;BME280;66746;51.328;12.332;2023-07-13T04:36:00;100198.34;;;18.54;60.37
77590;BME280;66746;51.328;12.332;2023-07-13T04:38:29;100194.03;;;18.63;59.60
77590;BME280;66746;51.328;12.332;2023-07-13T04:40:57;100170.84;;;18.67;59.58
77590;BME280;66746;51.328;12.332;2023-07-13T04:43:24;100184.88;;;18.75;59.49
77590;BME280;66746;51.328;12.332;2023-07-13T04:45:53;100175.13;;;18.71;59.30
77590;BME280;66746;51.328;12.332;2023-07-13T04:48:20;100183.66;;;18.79;59.08
77590;BME280;66746;51.328;12.332;2023-07-13T04:50:48;100193.88;;;18.89;59.14
77590;BME280;66746;51.328;12.332;2023-07-13T04:53:20;100199.91;;;18.94;60.23
77590;BME280;66746;51.328;12.332;2023-07-13T04:55:46;100192.88;;;18.90;59.71
77590;BME280;66746;51.328;12.332;2023-07-13T04:58:13;100179.41;;;18.75;59.61
77590;BME280;66746;51.328;12.332;2023-07-13T05:00:39;100192.81;;;18.79;59.91
77590;BME280;66746;51.328;12.332;2023-07-13T05:03:07;100194.78;;;18.77;60.53
77590;BME280;66746;51.328;12.332;2023-07-13T05:05:34;100194.91;;;18.76;59.58
77590;BME280;66746;51.328;12.332;2023-07-13T05:08:01;100187.19;;;18.81;60.74
77590;BME280;66746;51.328;12.332;2023-07-13T05:10:27;100188.16;;;18.80;60.93
77590;BME280;66746;51.328;12.332;2023-07-13T05:12:54;100202.34;;;18.86;60.23
77590;BME280;66746;51.328;12.332;2023-07-13T05:15:21;100193.75;;;18.91;60.81
77590;BME280;66746;51.328;12.332;2023-07-13T05:17:48;100204.50;;;18.94;61.59
77590;BME280;66746;51.328;12.332;2023-07-13T05:20:17;100200.53;;;18.98;61.37
77590;BME280;66746;51.328;12.332;2023-07-13T05:22:44;100206.69;;;19.01;60.16
77590;BME280;66746;51.328;12.332;2023-07-13T05:25:11;100206.34;;;19.06;60.42
77590;BME280;66746;51.328;12.332;2023-07-13T05:27:38;100211.38;;;19.12;60.22
77590;BME280;66746;51.328;12.332;2023-07-13T05:30:06;100213.22;;;19.24;59.91
77590;BME280;66746;51.328;12.332;2023-07-13T05:32:32;100205.34;;;19.67;57.80
77590;BME280;66746;51.328;12.332;2023-07-13T05:34:59;100204.78;;;21.84;51.67
77590;BME280;66746;51.328;12.332;2023-07-13T05:37:27;100201.03;;;23.57;47.81
77590;BME280;66746;51.328;12.332;2023-07-13T05:39:53;100196.25;;;25.46;43.30
77590;BME280;66746;51.328;12.332;2023-07-13T05:42:20;100200.38;;;25.41;42.26
77590;BME280;66746;51.328;12.332;2023-07-13T05:44:46;100197.44;;;26.23;41.34
77590;BME280;66746;51.328;12.332;2023-07-13T05:47:13;100214.88;;;25.63;40.23
77590;BME280;66746;51.328;12.332;2023-07-13T05:49:39;100212.50;;;25.13;43.23
77590;BME280;66746;51.328;12.332;2023-07-13T05:52:07;100207.88;;;25.59;44.38
77590;BME280;66746;51.328;12.332;2023-07-13T05:54:35;100209.06;;;25.74;41.25
77590;BME280;66746;51.328;12.332;2023-07-13T05:57:01;100217.09;;;26.47;39.88
77590;BME280;66746;51.328;12.332;2023-07-13T05:59:29;100215.56;;;26.53;41.28
77590;BME280;66746;51.328;12.332;2023-07-13T06:01:56;100217.06;;;26.21;39.32
77590;BME280;66746;51.328;12.332;2023-07-13T06:04:22;100216.69;;;24.90;43.22
77590;BME280;66746;51.328;12.332;2023-07-13T06:06:49;100217.94;;;24.59;45.17
77590;BME280;66746;51.328;12.332;2023-07-13T06:09:15;100221.53;;;24.69;44.88
77590;BME280;66746;51.328;12.332;2023-07-13T06:11:43;100221.72;;;25.41;43.05
77590;BME280;66746;51.328;12.332;2023-07-13T06:14:09;100217.47;;;26.52;41.13
77590;BME280;66746;51.328;12.332;2023-07-13T06:16:36;100219.09;;;27.48;38.44
77590;BME280;66746;51.328;12.332;2023-07-13T06:19:02;100207.34;;;27.70;38.18
77590;BME280;66746;51.328;12.332;2023-07-13T06:21:29;100215.03;;;27.84;38.08
77590;BME280;66746;51.328;12.332;2023-07-13T06:23:55;100222.06;;;27.46;37.37
77590;BME280;66746;51.328;12.332;2023-07-13T06:26:22;100225.75;;;26.87;38.25
77590;BME280;66746;51.328;12.332;2023-07-13T06:28:50;100228.94;;;27.00;37.59
77590;BME280;66746;51.328;12.332;2023-07-13T06:31:16;100235.16;;;26.25;40.13
77590;BME280;66746;51.328;12.332;2023-07-13T06:33:45;100224.03;;;26.51;39.90
77590;BME280;66746;51.328;12.332;2023-07-13T06:36:12;100229.34;;;26.80;39.86
77590;BME280;66746;51.328;12.332;2023-07-13T06:38:38;100218.59;;;26.67;39.04
77590;BME280;66746;51.328;12.332;2023-07-13T06:41:06;100227.53;;;26.53;40.04
77590;BME280;66746;51.328;12.332;2023-07-13T06:43:32;100234.69;;;26.12;39.77
77590;BME280;66746;51.328;12.332;2023-07-13T06:46:00;100238.72;;;26.18;40.14
77590;BME280;66746;51.328;12.332;2023-07-13T06:48:27;100234.28;;;26.25;40.84
77590;BME280;66746;51.328;12.332;2023-07-13T06:50:54;100235.28;;;26.42;39.74
77590;BME280;66746;51.328;12.332;2023-07-13T06:53:21;100242.16;;;26.30;39.06
77590;BME280;66746;51.328;12.332;2023-07-13T06:55:48;100242.38;;;26.36;39.28
77590;BME280;66746;51.328;12.332;2023-07-13T06:58:15;100242.97;;;25.95;40.22
77590;BME280;66746;51.328;12.332;2023-07-13T07:00:42;100243.47;;;25.73;41.07
77590;BME280;66746;51.328;12.332;2023-07-13T07:03:10;100243.41;;;26.00;39.87
77590;BME280;66746;51.328;12.332;2023-07-13T07:05:37;100244.25;;;25.28;40.67
77590;BME280;66746;51.328;12.332;2023-07-13T07:08:04;100253.44;;;25.02;41.62
77590;BME280;66746;51.328;12.332;2023-07-13T07:10:34;100248.13;;;25.18;39.67
77590;BME280;66746;51.328;12.332;2023-07-13T07:13:01;100254.69;;;24.80;41.48
77590;BME280;66746;51.328;12.332;2023-07-13T07:15:27;100253.25;;;24.57;42.90
77590;BME280;66746;51.328;12.332;2023-07-13T07:17:54;100266.13;;;24.39;42.92
77590;BME280;66746;51.328;12.332;2023-07-13T07:20:22;100264.94;;;23.94;42.96
77590;BME280;66746;51.328;12.332;2023-07-13T07:22:49;100265.81;;;24.61;40.73
77590;BME280;66746;51.328;12.332;2023-07-13T07:25:16;100275.75;;;24.44;42.41
77590;BME280;66746;51.328;12.332;2023-07-13T07:27:42;100264.00;;;24.70;40.74
77590;BME280;66746;51.328;12.332;2023-07-13T07:30:12;100269.25;;;24.92;40.41
77590;BME280;66746;51.328;12.332;2023-07-13T07:32:42;100261.03;;;25.36;40.27
77590;BME280;66746;51.328;12.332;2023-07-13T07:35:11;100261.34;;;25.88;38.57
77590;BME280;66746;51.328;12.332;2023-07-13T07:37:39;100262.81;;;26.09;37.52
77590;BME280;66746;51.328;12.332;2023-07-13T07:40:08;100256.13;;;25.58;37.27
77590;BME280;66746;51.328;12.332;2023-07-13T07:42:38;100266.47;;;25.83;38.31
77590;BME280;66746;51.328;12.332;2023-07-13T07:45:05;100269.34;;;25.91;37.10
77590;BME280;66746;51.328;12.332;2023-07-13T07:47:32;100270.38;;;25.45;36.55
77590;BME280;66746;51.328;12.332;2023-07-13T07:49:58;100278.88;;;24.97;36.62
77590;BME280;66746;51.328;12.332;2023-07-13T07:52:25;100269.31;;;24.63;37.12
77590;BME280;66746;51.328;12.332;2023-07-13T07:54:53;100278.38;;;24.27;37.97
77590;BME280;66746;51.328;12.332;2023-07-13T07:57:22;100277.81;;;24.14;38.58
77590;BME280;66746;51.328;12.332;2023-07-13T07:59:51;100278.91;;;23.83;38.53
77590;BME280;66746;51.328;12.332;2023-07-13T08:02:21;100274.38;;;23.82;40.04
77590;BME280;66746;51.328;12.332;2023-07-13T08:04:50;100278.09;;;24.49;40.04
77590;BME280;66746;51.328;12.332;2023-07-13T08:07:20;100270.34;;;25.18;37.08
77590;BME280;66746;51.328;12.332;2023-07-13T08:09:46;100262.47;;;25.68;36.55
77590;BME280;66746;51.328;12.332;2023-07-13T08:12:14;100264.59;;;26.01;37.71
77590;BME280;66746;51.328;12.332;2023-07-13T08:14:44;100267.09;;;26.39;36.21
77590;BME280;66746;51.328;12.332;2023-07-13T08:17:19;100262.34;;;26.75;35.00
77590;BME280;66746;51.328;12.332;2023-07-13T08:19:46;100265.25;;;26.91;34.24
77590;BME280;66746;51.328;12.332;2023-07-13T08:22:12;100261.69;;;27.06;34.66
77590;BME280;66746;51.328;12.332;2023-07-13T08:24:39;100267.69;;;26.68;34.83
77590;BME280;66746;51.328;12.332;2023-07-13T08:27:06;100266.75;;;26.42;35.36
77590;BME280;66746;51.328;12.332;2023-07-13T08:29:48;100268.84;;;26.83;35.39
77590;BME280;66746;51.328;12.332;2023-07-13T08:32:15;100271.03;;;26.01;36.27
77590;BME280;66746;51.328;12.332;2023-07-13T08:34:42;100258.84;;;26.55;36.21
77590;BME280;66746;51.328;12.332;2023-07-13T08:37:09;100265.41;;;26.89;34.40
77590;BME280;66746;51.328;12.332;2023-07-13T08:39:35;100268.28;;;26.37;35.24
77590;BME280;66746;51.328;12.332;2023-07-13T08:42:06;100266.72;;;25.89;36.55
77590;BME280;66746;51.328;12.332;2023-07-13T08:44:43;100269.09;;;26.29;36.74
77590;BME280;66746;51.328;12.332;2023-07-13T08:47:15;100270.84;;;25.85;35.68
77590;BME280;66746;51.328;12.332;2023-07-13T08:49:43;100268.09;;;25.58;36.95
77590;BME280;66746;51.328;12.332;2023-07-13T08:52:14;100270.78;;;25.95;35.37
77590;BME280;66746;51.328;12.332;2023-07-13T08:54:49;100266.22;;;26.21;35.70
77590;BME280;66746;51.328;12.332;2023-07-13T08:57:19;100262.53;;;26.03;35.19
77590;BME280;66746;51.328;12.332;2023-07-13T08:59:46;100266.19;;;26.56;35.76
77590;BME280;66746;51.328;12.332;2023-07-13T09:02:22;100272.72;;;26.90;34.28
77590;BME280;66746;51.328;12.332;2023-07-13T09:04:55;100264.00;;;26.68;34.10
77590;BME280;66746;51.328;12.332;2023-07-13T09:07:31;100262.31;;;25.69;34.52
77590;BME280;66746;51.328;12.332;2023-07-13T09:10:10;100264.22;;;25.05;37.00
77590;BME280;66746;51.328;12.332;2023-07-13T09:12:51;100270.91;;;25.21;36.71
77590;BME280;66746;51.328;12.332;2023-07-13T09:15:26;100271.66;;;25.04;37.26
77590;BME280;66746;51.328;12.332;2023-07-13T09:17:57;100267.56;;;25.55;37.13
77590;BME280;66746;51.328;12.332;2023-07-13T09:20:29;100271.91;;;25.57;35.08
77590;BME280;66746;51.328;12.332;2023-07-13T09:22:59;100264.09;;;25.88;35.34
77590;BME280;66746;51.328;12.332;2023-07-13T09:25:30;100260.28;;;26.59;32.96
77590;BME280;66746;51.328;12.332;2023-07-13T09:28:00;100270.88;;;26.99;34.27
77590;BME280;66746;51.328;12.332;2023-07-13T09:30:33;100263.28;;;27.35;32.98
77590;BME280;66746;51.328;12.332;2023-07-13T09:33:04;100260.88;;;27.89;31.39
77590;BME280;66746;51.328;12.332;2023-07-13T09:35:31;100257.94;;;27.16;31.08
77590;BME280;66746;51.328;12.332;2023-07-13T09:37:59;100261.91;;;26.44;33.35
77590;BME280;66746;51.328;12.332;2023-07-13T09:40:36;100266.59;;;26.08;33.76
77590;BME280;66746;51.328;12.332;2023-07-13T09:43:05;100269.47;;;26.16;33.48
77590;BME280;66746;51.328;12.332;2023-07-13T09:45:34;100277.97;;;25.70;34.36
77590;BME280;66746;51.328;12.332;2023-07-13T09:48:06;100274.94;;;25.64;35.02
77590;BME280;66746;51.328;12.332;2023-07-13T09:50:33;100273.78;;;25.29;34.60
77590;BME280;66746;51.328;12.332;2023-07-13T09:53:01;100278.84;;;25.07;35.33
77590;BME280;66746;51.328;12.332;2023-07-13T09:55:29;100272.44;;;24.97;37.12
77590;BME280;66746;51.328;12.332;2023-07-13T09:57:57;100286.94;;;24.81;37.58
77590;BME280;66746;51.328;12.332;2023-07-13T10:00:26;100281.28;;;24.54;37.02
77590;BME280;66746;51.328;12.332;2023-07-13T10:03:01;100289.44;;;24.84;37.34
77590;BME280;66746;51.328;12.332;2023-07-13T10:05:37;100286.94;;;24.81;35.69
77590;BME280;66746;51.328;12.332;2023-07-13T10:08:04;100287.44;;;25.13;35.38
77590;BME280;66746;51.328;12.332;2023-07-13T10:10:30;100281.16;;;25.11;36.38
77590;BME280;66746;51.328;12.332;2023-07-13T10:12:57;100279.00;;;25.42;34.26
77590;BME280;66746;51.328;12.332;2023-07-13T10:15:24;100274.91;;;25.91;35.74
77590;BME280;66746;51.328;12.332;2023-07-13T10:17:53;100276.25;;;25.87;34.83
77590;BME280;66746;51.328;12.332;2023-07-13T10:20:21;100272.22;;;25.99;34.46
77590;BME280;66746;51.328;12.332;2023-07-13T10:22:53;100274.47;;;26.48;32.83
77590;BME280;66746;51.328;12.332;2023-07-13T10:25:22;100278.69;;;26.95;34.40
77590;BME280;66746;51.328;12.332;2023-07-13T10:27:52;100276.19;;;26.84;32.67
77590;BME280;66746;51.328;12.332;2023-07-13T10:30:21;100279.78;;;26.42;34.63
77590;BME280;66746;51.328;12.332;2023-07-13T10:32:50;100283.91;;;26.38;35.04
77590;BME280;66746;51.328;12.332;2023-07-13T10:35:18;100277.97;;;26.93;34.06
77590;BME280;66746;51.328;12.332;2023-07-13T10:37:49;100281.09;;;27.50;33.98
77590;BME280;66746;51.328;12.332;2023-07-13T10:40:22;100271.81;;;27.83;32.05
77590;BME280;66746;51.328;12.332;2023-07-13T10:42:53;100288.00;;;27.79;33.08
77590;BME280;66746;51.328;12.332;2023-07-13T10:45:23;100275.38;;;27.26;31.76
77590;BME280;66746;51.328;12.332;2023-07-13T10:47:51;100285.56;;;26.83;33.75
77590;BME280;66746;51.328;12.332;2023-07-13T10:50:21;100285.84;;;26.19;33.86
77590;BME280;66746;51.328;12.332;2023-07-13T10:52:49;100294.56;;;26.24;33.97
77590;BME280;66746;51.328;12.332;2023-07-13T10:55:40;100293.56;;;26.08;33.46
77590;BME280;66746;51.328;12.332;2023-07-13T10:58:22;100291.09;;;26.22;34.35
77590;BME280;66746;51.328;12.332;2023-07-13T11:00:56;100284.09;;;26.97;32.57
77590;BME280;66746;51.328;12.332;2023-07-13T11:03:27;100289.22;;;27.09;33.07
77590;BME280;66746;51.328;12.332;2023-07-13T11:06:09;100285.47;;;27.52;30.34
77590;BME280;66746;51.328;12.332;2023-07-13T11:08:38;100290.22;;;27.60;31.70
77590;BME280;66746;51.328;12.332;2023-07-13T11:11:37;100291.06;;;26.75;30.76
77590;BME280;66746;51.328;12.332;2023-07-13T11:20:42;100264.13;;;26.58;31.20
77590;BME280;66746;51.328;12.332;2023-07-13T11:23:36;100255.19;;;26.11;32.11
77590;BME280;66746;51.328;12.332;2023-07-13T11:26:50;100272.78;;;26.98;30.78
77590;BME280;66746;51.328;12.332;2023-07-13T11:29:33;100265.94;;;27.44;30.13
77590;BME280;66746;51.328;12.332;2023-07-13T11:32:50;100278.81;;;27.87;29.75
77590;BME280;66746;51.328;12.332;2023-07-13T11:38:45;100233.44;;;26.50;31.08
77590;BME280;66746;51.328;12.332;2023-07-13T11:41:27;100259.00;;;27.23;30.76
77590;BME280;66746;51.328;12.332;2023-07-13T11:44:17;100248.91;;;27.55;30.03
77590;BME280;66746;51.328;12.332;2023-07-13T11:46:46;100259.06;;;27.31;28.46
77590;BME280;66746;51.328;12.332;2023-07-13T11:49:23;100259.53;;;27.26;28.17
77590;BME280;66746;51.328;12.332;2023-07-13T11:52:22;100267.66;;;27.11;29.29
77590;BME280;66746;51.328;12.332;2023-07-13T11:55:40;100222.34;;;27.01;28.31
77590;BME280;66746;51.328;12.332;2023-07-13T11:58:35;100236.25;;;27.77;28.77
77590;BME280;66746;51.328;12.332;2023-07-13T12:01:06;100255.34;;;27.98;27.38
77590;BME280;66746;51.328;12.332;2023-07-13T12:03:37;100253.44;;;28.06;26.90
77590;BME280;66746;51.328;12.332;2023-07-13T12:06:39;100262.34;;;28.18;26.76
77590;BME280;66746;51.328;12.332;2023-07-13T12:09:30;100263.03;;;27.62;26.70
77590;BME280;66746;51.328;12.332;2023-07-13T12:12:00;100254.31;;;28.07;27.74
77590;BME280;66746;51.328;12.332;2023-07-13T12:14:37;100250.69;;;28.30;26.42
77590;BME280;66746;51.328;12.332;2023-07-13T12:17:21;100262.72;;;28.23;25.80
77590;BME280;66746;51.328;12.332;2023-07-13T12:20:17;100234.78;;;28.07;25.97
77590;BME280;66746;51.328;12.332;2023-07-13T12:23:10;100237.59;;;28.15;25.87
77590;BME280;66746;51.328;12.332;2023-07-13T12:25:50;100260.41;;;28.10;26.08
77590;BME280;66746;51.328;12.332;2023-07-13T12:28:20;100252.38;;;27.99;27.26
77590;BME280;66746;51.328;12.332;2023-07-13T12:30:57;100250.97;;;27.95;26.93
77590;BME280;66746;51.328;12.332;2023-07-13T12:33:28;100249.78;;;27.56;25.95
77590;BME280;66746;51.328;12.332;2023-07-13T12:35:56;100253.63;;;27.63;26.98
77590;BME280;66746;51.328;12.332;2023-07-13T12:38:24;100222.13;;;27.78;26.82
77590;BME280;66746;51.328;12.332;2023-07-13T12:40:52;100259.00;;;28.06;26.54
77590;BME280;66746;51.328;12.332;2023-07-13T12:43:20;100254.16;;;28.16;26.71
77590;BME280;66746;51.328;12.332;2023-07-13T12:45:58;100252.06;;;28.34;25.76
77590;BME280;66746;51.328;12.332;2023-07-13T12:48:25;100267.06;;;28.33;27.15
77590;BME280;66746;51.328;12.332;2023-07-13T12:51:12;100265.16;;;28.50;25.51
77590;BME280;66746;51.328;12.332;2023-07-13T12:53:41;100255.91;;;28.41;26.03
77590;BME280;66746;51.328;12.332;2023-07-13T12:56:16;100234.97;;;28.37;25.82
77590;BME280;66746;51.328;12.332;2023-07-13T12:58:45;100275.63;;;28.48;25.83
77590;BME280;66746;51.328;12.332;2023-07-13T13:01:13;100264.31;;;28.73;25.86
77590;BME280;66746;51.328;12.332;2023-07-13T13:03:45;100260.25;;;28.36;26.23
77590;BME280;66746;51.328;12.332;2023-07-13T13:06:24;100256.41;;;27.63;25.95
77590;BME280;66746;51.328;12.332;2023-07-13T13:08:52;100266.91;;;27.77;26.93